Wednesday, September 19, 2018, 6:45 PM GMT
Back to Local

CWRN, Hart Island Meteorological Aeronautical Presentation System

Location: , , Canada Lat: 45.35
Local Time: 6:45 PM GMT (18:45 GMT) Lon: -60.983
Time Zone: GMT Elev: 13 ft

Show me the last for .
Show Coded

Time T Td Feel RH Dir Speed Gust Alt SLP Vis Weather Sky Remarks
2018-09-19 18:00 55 53 - 93 30° 22 32 - 29.96 0 Peak wind: 33 mph (29 kts) from 20° at 36 min
2018-09-19 17:00 56 54 - 93 50° 21 28 - 29.96 0 Peak wind: 32 mph (28 kts) from 40° at 31 min
2018-09-19 16:00 55 53 - 92 50° 21 32 - 29.94 0 Peak wind: 32 mph (28 kts) from 40° at 59 min
2018-09-19 15:00 56 54 - 92 50° 20 30 - 29.93 0 Peak wind: 33 mph (29 kts) from 50° at 01 min
2018-09-19 14:00 57 54 - 88 50° 22 31 - 29.90 0 Peak wind: 33 mph (29 kts) from 40° at 38 min
2018-09-19 13:00 57 54 - 88 60° 23 32 - 29.87 0 Peak wind: 33 mph (29 kts) from 60° at 38 min
2018-09-19 12:00 56 53 - 90 50° 22 30 - 29.87 0 Peak wind: 36 mph (32 kts) from 50° at 26 min
2018-09-19 11:00 55 53 - 95 60° 23 33 - 29.86 0 Peak wind: 34 mph (30 kts) from 60° at 04 min
2018-09-19 10:00 57 55 - 93 60° 24 35 - 29.84 0 Peak wind: 34 mph (30 kts) from 60° at 57 min
2018-09-19 09:00 57 54 - 90 60° 25 37 - 29.81 0 Peak wind: 36 mph (32 kts) from 60° at 22 min
2018-09-19 08:00 58 55 - 90 60° 24 33 - 29.79 0 Peak wind: 35 mph (31 kts) from 70° at 06 min
2018-09-19 07:00 57 55 - 91 70° 24 32 - 29.79 0 Peak wind: 39 mph (34 kts) from 70° at 41 min
2018-09-19 06:00 58 56 - 93 60° 24 37 - 29.78 0 Peak wind: 36 mph (32 kts) from 50° at 37 min
2018-09-19 05:00 58 56 - 93 60° 23 31 - 29.78 0 Peak wind: 36 mph (32 kts) from 60° at 38 min
2018-09-19 04:00 58 56 - 95 50° 24 33 - 29.79 0 Peak wind: 34 mph (30 kts) from 60° at 46 min
2018-09-19 03:00 57 56 - 94 40° 23 32 - 29.81 0 Peak wind: 33 mph (29 kts) from 30° at 26 min
2018-09-19 02:00 58 56 - 92 40° 22 30 - 29.80 0 Peak wind: 31 mph (27 kts) from 40° at 48 min
2018-09-19 01:00 60 57 - 91 40° 20 28 - 29.79 0 Peak wind: 29 mph (26 kts) from 60° at 01 min
2018-09-19 00:00 61 59 - 91 40° 20 26 - 29.77 0 Peak wind: 26 mph (23 kts) from 50° at 57 min
2018-09-18 23:00 64 61 - 90 50° 16 24 - 29.76 0 Peak wind: 24 mph (21 kts) from 40° at 53 min
2018-09-18 22:00 67 64 - 89 10° 9 20 - 29.73 0 Peak wind: 19 mph (17 kts) from 20° at 59 min
2018-09-18 21:00 68 65 - 88 320° 10 - - 29.72 0 None
2018-09-18 20:00 69 65 - 84 310° 12 - - 29.72 0 None
2018-09-18 19:00 72 65 76 77 270° 7 - - 29.70 0 None

Support USWX by starting your Amazon purchase here.